sensor_id;sensor_type;location;lat;lon;timestamp;pressure;altitude;pressure_sealevel;temperature;humidity
21658;BME280;10990;48.174;9.782;2023-10-31T00:00:17;92605.38;;;9.97;100.00
21658;BME280;10990;48.174;9.782;2023-10-31T00:02:46;92604.09;;;9.99;100.00
21658;BME280;10990;48.174;9.782;2023-10-31T00:05:12;92601.53;;;9.93;100.00
21658;BME280;10990;48.174;9.782;2023-10-31T00:07:37;92602.13;;;9.95;100.00
21658;BME280;10990;48.174;9.782;2023-10-31T00:10:04;92603.16;;;9.94;100.00
21658;BME280;10990;48.174;9.782;2023-10-31T00:12:30;92603.97;;;9.94;100.00
21658;BME280;10990;48.174;9.782;2023-10-31T00:14:55;92599.69;;;9.93;100.00
21658;BME280;10990;48.174;9.782;2023-10-31T00:17:21;92611.66;;;9.96;100.00
21658;BME280;10990;48.174;9.782;2023-10-31T00:19:49;92607.19;;;9.96;100.00
21658;BME280;10990;48.174;9.782;2023-10-31T00:22:15;92603.09;;;10.00;100.00
21658;BME280;10990;48.174;9.782;2023-10-31T00:24:41;92607.31;;;10.01;100.00
21658;BME280;10990;48.174;9.782;2023-10-31T00:27:07;92610.84;;;9.95;100.00
21658;BME280;10990;48.174;9.782;2023-10-31T00:29:33;92609.25;;;9.94;100.00
21658;BME280;10990;48.174;9.782;2023-10-31T00:31:58;92604.78;;;9.95;100.00
21658;BME280;10990;48.174;9.782;2023-10-31T00:34:24;92602.56;;;9.92;100.00
21658;BME280;10990;48.174;9.782;2023-10-31T00:36:53;92614.53;;;9.94;100.00
21658;BME280;10990;48.174;9.782;2023-10-31T00:39:18;92601.63;;;9.86;100.00
21658;BME280;10990;48.174;9.782;2023-10-31T00:41:45;92602.56;;;9.92;100.00
21658;BME280;10990;48.174;9.782;2023-10-31T00:44:11;92608.75;;;9.85;100.00
21658;BME280;10990;48.174;9.782;2023-10-31T00:46:37;92612.19;;;9.86;100.00
21658;BME280;10990;48.174;9.782;2023-10-31T00:49:03;92615.03;;;9.84;100.00
21658;BME280;10990;48.174;9.782;2023-10-31T00:51:29;92601.78;;;9.91;100.00
21658;BME280;10990;48.174;9.782;2023-10-31T00:53:57;92600.00;;;9.85;100.00
21658;BME280;10990;48.174;9.782;2023-10-31T00:56:23;92607.25;;;9.90;100.00
21658;BME280;10990;48.174;9.782;2023-10-31T00:58:49;92611.94;;;9.87;100.00
21658;BME280;10990;48.174;9.782;2023-10-31T01:01:15;92609.47;;;9.93;100.00
21658;BME280;10990;48.174;9.782;2023-10-31T01:03:42;92611.91;;;9.94;100.00
21658;BME280;10990;48.174;9.782;2023-10-31T01:06:08;92612.47;;;9.96;100.00
21658;BME280;10990;48.174;9.782;2023-10-31T01:08:34;92616.78;;;9.91;100.00
21658;BME280;10990;48.174;9.782;2023-10-31T01:11:03;92620.66;;;9.88;100.00
21658;BME280;10990;48.174;9.782;2023-10-31T01:13:29;92614.66;;;9.99;100.00
21658;BME280;10990;48.174;9.782;2023-10-31T01:15:54;92620.53;;;10.01;100.00
21658;BME280;10990;48.174;9.782;2023-10-31T01:18:20;92639.88;;;9.95;100.00
21658;BME280;10990;48.174;9.782;2023-10-31T01:20:47;92645.16;;;9.95;100.00
21658;BME280;10990;48.174;9.782;2023-10-31T01:23:12;92655.22;;;9.86;100.00
21658;BME280;10990;48.174;9.782;2023-10-31T01:25:38;92675.53;;;9.86;100.00
21658;BME280;10990;48.174;9.782;2023-10-31T01:28:07;92679.19;;;9.85;100.00
21658;BME280;10990;48.174;9.782;2023-10-31T01:30:32;92684.00;;;9.88;100.00
21658;BME280;10990;48.174;9.782;2023-10-31T01:32:58;92698.59;;;9.91;100.00
21658;BME280;10990;48.174;9.782;2023-10-31T01:35:24;92713.44;;;9.92;100.00
21658;BME280;10990;48.174;9.782;2023-10-31T01:37:50;92713.06;;;9.88;100.00
21658;BME280;10990;48.174;9.782;2023-10-31T01:40:16;92726.47;;;9.86;100.00
21658;BME280;10990;48.174;9.782;2023-10-31T01:42:42;92727.72;;;9.84;100.00
21658;BME280;10990;48.174;9.782;2023-10-31T01:45:11;92729.31;;;9.85;100.00
21658;BME280;10990;48.174;9.782;2023-10-31T01:47:36;92719.16;;;9.88;100.00
21658;BME280;10990;48.174;9.782;2023-10-31T01:50:03;92724.91;;;9.79;100.00
21658;BME280;10990;48.174;9.782;2023-10-31T01:52:29;92727.19;;;9.75;100.00
21658;BME280;10990;48.174;9.782;2023-10-31T01:54:55;92721.63;;;9.83;100.00
21658;BME280;10990;48.174;9.782;2023-10-31T01:57:22;92715.03;;;9.74;100.00
21658;BME280;10990;48.174;9.782;2023-10-31T01:59:48;92716.41;;;9.77;100.00
21658;BME280;10990;48.174;9.782;2023-10-31T02:02:17;92717.00;;;9.79;100.00
21658;BME280;10990;48.174;9.782;2023-10-31T02:04:45;92723.09;;;9.79;100.00
21658;BME280;10990;48.174;9.782;2023-10-31T02:07:11;92717.44;;;9.76;100.00
21658;BME280;10990;48.174;9.782;2023-10-31T02:09:38;92730.25;;;9.72;100.00
21658;BME280;10990;48.174;9.782;2023-10-31T02:12:04;92728.16;;;9.81;100.00
21658;BME280;10990;48.174;9.782;2023-10-31T02:14:30;92726.81;;;9.72;100.00
21658;BME280;10990;48.174;9.782;2023-10-31T02:16:56;92734.50;;;9.73;100.00
21658;BME280;10990;48.174;9.782;2023-10-31T02:19:25;92728.09;;;9.62;100.00
21658;BME280;10990;48.174;9.782;2023-10-31T02:21:53;92730.91;;;9.68;100.00
21658;BME280;10990;48.174;9.782;2023-10-31T02:24:19;92740.91;;;9.59;100.00
21658;BME280;10990;48.174;9.782;2023-10-31T02:26:45;92745.13;;;9.67;100.00
21658;BME280;10990;48.174;9.782;2023-10-31T02:29:10;92747.44;;;9.56;100.00
21658;BME280;10990;48.174;9.782;2023-10-31T02:31:36;92751.28;;;9.60;100.00
21658;BME280;10990;48.174;9.782;2023-10-31T02:34:02;92760.25;;;9.53;100.00
21658;BME280;10990;48.174;9.782;2023-10-31T02:36:28;92755.78;;;9.53;100.00
21658;BME280;10990;48.174;9.782;2023-10-31T02:38:56;92761.06;;;9.53;100.00
21658;BME280;10990;48.174;9.782;2023-10-31T02:41:22;92756.66;;;9.47;100.00
21658;BME280;10990;48.174;9.782;2023-10-31T02:43:48;92757.00;;;9.51;100.00
21658;BME280;10990;48.174;9.782;2023-10-31T02:46:14;92763.94;;;9.45;100.00
21658;BME280;10990;48.174;9.782;2023-10-31T02:48:40;92771.13;;;9.38;100.00
21658;BME280;10990;48.174;9.782;2023-10-31T02:51:06;92771.88;;;9.45;100.00
21658;BME280;10990;48.174;9.782;2023-10-31T02:53:33;92778.78;;;9.46;100.00
21658;BME280;10990;48.174;9.782;2023-10-31T02:56:01;92777.38;;;9.43;100.00
21658;BME280;10990;48.174;9.782;2023-10-31T02:58:27;92778.97;;;9.45;100.00
21658;BME280;10990;48.174;9.782;2023-10-31T03:00:53;92789.34;;;9.39;100.00
21658;BME280;10990;48.174;9.782;2023-10-31T03:03:19;92790.59;;;9.37;100.00
21658;BME280;10990;48.174;9.782;2023-10-31T03:05:45;92795.28;;;9.35;100.00
21658;BME280;10990;48.174;9.782;2023-10-31T03:08:11;92797.94;;;9.28;100.00
21658;BME280;10990;48.174;9.782;2023-10-31T03:10:38;92798.31;;;9.32;100.00
21658;BME280;10990;48.174;9.782;2023-10-31T03:13:07;92796.75;;;9.24;100.00
21658;BME280;10990;48.174;9.782;2023-10-31T03:15:32;92801.84;;;9.19;100.00
21658;BME280;10990;48.174;9.782;2023-10-31T03:17:58;92799.41;;;9.24;100.00
21658;BME280;10990;48.174;9.782;2023-10-31T03:20:24;92810.94;;;9.23;100.00
21658;BME280;10990;48.174;9.782;2023-10-31T03:22:50;92809.94;;;9.24;100.00
21658;BME280;10990;48.174;9.782;2023-10-31T03:25:16;92814.44;;;9.17;100.00
21658;BME280;10990;48.174;9.782;2023-10-31T03:27:42;92810.16;;;9.23;100.00
21658;BME280;10990;48.174;9.782;2023-10-31T03:30:11;92813.75;;;9.28;100.00
21658;BME280;10990;48.174;9.782;2023-10-31T03:32:37;92822.91;;;9.26;100.00
21658;BME280;10990;48.174;9.782;2023-10-31T03:35:04;92821.13;;;9.19;100.00
21658;BME280;10990;48.174;9.782;2023-10-31T03:37:30;92830.47;;;9.15;100.00
21658;BME280;10990;48.174;9.782;2023-10-31T03:39:56;92828.41;;;9.17;100.00
21658;BME280;10990;48.174;9.782;2023-10-31T03:42:22;92832.88;;;9.17;100.00
21658;BME280;10990;48.174;9.782;2023-10-31T03:44:48;92835.09;;;9.20;100.00
21658;BME280;10990;48.174;9.782;2023-10-31T03:47:16;92835.31;;;9.18;100.00
21658;BME280;10990;48.174;9.782;2023-10-31T03:49:42;92845.72;;;9.07;100.00
21658;BME280;10990;48.174;9.782;2023-10-31T03:52:08;92852.19;;;9.11;100.00
21658;BME280;10990;48.174;9.782;2023-10-31T03:54:33;92857.03;;;9.14;100.00
21658;BME280;10990;48.174;9.782;2023-10-31T03:57:00;92848.38;;;9.07;100.00
21658;BME280;10990;48.174;9.782;2023-10-31T03:59:26;92854.06;;;8.97;100.00
21658;BME280;10990;48.174;9.782;2023-10-31T04:01:51;92863.19;;;8.94;100.00
21658;BME280;10990;48.174;9.782;2023-10-31T04:04:20;92859.94;;;8.99;100.00
21658;BME280;10990;48.174;9.782;2023-10-31T04:06:46;92861.78;;;8.98;100.00
21658;BME280;10990;48.174;9.782;2023-10-31T04:09:12;92870.88;;;9.03;100.00
21658;BME280;10990;48.174;9.782;2023-10-31T04:11:38;92866.63;;;9.02;100.00
21658;BME280;10990;48.174;9.782;2023-10-31T04:14:04;92876.75;;;9.05;100.00
21658;BME280;10990;48.174;9.782;2023-10-31T04:16:29;92882.88;;;8.92;100.00
21658;BME280;10990;48.174;9.782;2023-10-31T04:18:55;92874.53;;;8.95;100.00
21658;BME280;10990;48.174;9.782;2023-10-31T04:21:24;92876.75;;;9.05;100.00
21658;BME280;10990;48.174;9.782;2023-10-31T04:23:49;92878.59;;;9.04;100.00
21658;BME280;10990;48.174;9.782;2023-10-31T04:26:15;92877.13;;;9.08;100.00
21658;BME280;10990;48.174;9.782;2023-10-31T04:28:41;92880.38;;;9.04;100.00
21658;BME280;10990;48.174;9.782;2023-10-31T04:31:07;92891.13;;;9.15;100.00
21658;BME280;10990;48.174;9.782;2023-10-31T04:33:33;92886.28;;;9.06;100.00
21658;BME280;10990;48.174;9.782;2023-10-31T04:35:58;92889.13;;;9.04;100.00
21658;BME280;10990;48.174;9.782;2023-10-31T04:38:27;92881.84;;;9.00;100.00
21658;BME280;10990;48.174;9.782;2023-10-31T04:40:53;92887.91;;;9.00;100.00
21658;BME280;10990;48.174;9.782;2023-10-31T04:43:18;92885.88;;;9.02;100.00
21658;BME280;10990;48.174;9.782;2023-10-31T04:45:44;92882.03;;;8.98;100.00
21658;BME280;10990;48.174;9.782;2023-10-31T04:48:10;92888.72;;;9.01;100.00
21658;BME280;10990;48.174;9.782;2023-10-31T04:50:36;92903.72;;;9.00;100.00
21658;BME280;10990;48.174;9.782;2023-10-31T04:53:02;92889.38;;;8.96;100.00
21658;BME280;10990;48.174;9.782;2023-10-31T04:55:30;92895.44;;;8.96;100.00
21658;BME280;10990;48.174;9.782;2023-10-31T04:57:56;92898.69;;;8.98;100.00
21658;BME280;10990;48.174;9.782;2023-10-31T05:00:23;92908.44;;;8.85;100.00
21658;BME280;10990;48.174;9.782;2023-10-31T05:02:49;92904.38;;;8.89;100.00
21658;BME280;10990;48.174;9.782;2023-10-31T05:05:15;92905.19;;;8.83;100.00
21658;BME280;10990;48.174;9.782;2023-10-31T05:07:41;92900.31;;;8.86;100.00
21658;BME280;10990;48.174;9.782;2023-10-31T05:10:08;92901.97;;;8.81;100.00
21658;BME280;10990;48.174;9.782;2023-10-31T05:12:36;92896.69;;;8.81;100.00
21658;BME280;10990;48.174;9.782;2023-10-31T05:15:02;92904.81;;;8.79;100.00
21658;BME280;10990;48.174;9.782;2023-10-31T05:17:28;92903.19;;;8.71;100.00
21658;BME280;10990;48.174;9.782;2023-10-31T05:19:54;92908.88;;;8.68;100.00
21658;BME280;10990;48.174;9.782;2023-10-31T05:22:20;92908.88;;;8.68;100.00
21658;BME280;10990;48.174;9.782;2023-10-31T05:24:46;92901.41;;;8.65;100.00
21658;BME280;10990;48.174;9.782;2023-10-31T05:27:11;92897.75;;;8.73;100.00
21658;BME280;10990;48.174;9.782;2023-10-31T05:29:41;92912.75;;;8.66;100.00
21658;BME280;10990;48.174;9.782;2023-10-31T05:32:07;92920.22;;;8.69;100.00
21658;BME280;10990;48.174;9.782;2023-10-31T05:34:32;92924.88;;;8.67;100.00
21658;BME280;10990;48.174;9.782;2023-10-31T05:36:58;92928.75;;;8.58;100.00
21658;BME280;10990;48.174;9.782;2023-10-31T05:39:24;92924.09;;;8.60;100.00
21658;BME280;10990;48.174;9.782;2023-10-31T05:41:50;92927.75;;;8.65;100.00
21658;BME280;10990;48.174;9.782;2023-10-31T05:44:16;92936.47;;;8.59;100.00
21658;BME280;10990;48.174;9.782;2023-10-31T05:46:44;92928.34;;;8.61;100.00
21658;BME280;10990;48.174;9.782;2023-10-31T05:49:10;92938.28;;;8.52;100.00
21658;BME280;10990;48.174;9.782;2023-10-31T05:51:36;92944.38;;;8.59;100.00
21658;BME280;10990;48.174;9.782;2023-10-31T05:54:02;92959.97;;;8.54;100.00
21658;BME280;10990;48.174;9.782;2023-10-31T05:56:28;92948.63;;;8.53;100.00
21658;BME280;10990;48.174;9.782;2023-10-31T05:58:54;92963.41;;;8.48;100.00
21658;BME280;10990;48.174;9.782;2023-10-31T06:01:19;92971.31;;;8.48;100.00
21658;BME280;10990;48.174;9.782;2023-10-31T06:03:48;92977.00;;;8.45;100.00
21658;BME280;10990;48.174;9.782;2023-10-31T06:06:13;92980.41;;;8.39;100.00
21658;BME280;10990;48.174;9.782;2023-10-31T06:08:39;92979.81;;;8.43;100.00
21658;BME280;10990;48.174;9.782;2023-10-31T06:11:06;92994.81;;;8.43;100.00
21658;BME280;10990;48.174;9.782;2023-10-31T06:13:33;93003.13;;;8.40;100.00
21658;BME280;10990;48.174;9.782;2023-10-31T06:16:00;93008.16;;;8.41;100.00
21658;BME280;10990;48.174;9.782;2023-10-31T06:18:26;93018.31;;;8.44;100.00
21658;BME280;10990;48.174;9.782;2023-10-31T06:20:55;93021.97;;;8.43;100.00
21658;BME280;10990;48.174;9.782;2023-10-31T06:23:21;93032.72;;;8.48;100.00
21658;BME280;10990;48.174;9.782;2023-10-31T06:25:46;93025.22;;;8.45;100.00
21658;BME280;10990;48.174;9.782;2023-10-31T06:28:12;93025.41;;;8.44;100.00
21658;BME280;10990;48.174;9.782;2023-10-31T06:30:38;93033.91;;;8.46;100.00
21658;BME280;10990;48.174;9.782;2023-10-31T06:33:04;93030.88;;;8.49;100.00
21658;BME280;10990;48.174;9.782;2023-10-31T06:35:30;93036.75;;;8.44;100.00
21658;BME280;10990;48.174;9.782;2023-10-31T06:37:58;93040.22;;;8.45;100.00
21658;BME280;10990;48.174;9.782;2023-10-31T06:40:24;93043.81;;;8.37;100.00
21658;BME280;10990;48.174;9.782;2023-10-31T06:42:50;93048.47;;;8.42;100.00
21658;BME280;10990;48.174;9.782;2023-10-31T06:45:16;93049.31;;;8.42;100.00
21658;BME280;10990;48.174;9.782;2023-10-31T06:47:42;93053.16;;;8.40;100.00
21658;BME280;10990;48.174;9.782;2023-10-31T06:50:09;93055.16;;;8.38;100.00
21658;BME280;10990;48.174;9.782;2023-10-31T06:52:35;93057.41;;;8.41;100.00
21658;BME280;10990;48.174;9.782;2023-10-31T06:55:04;93056.34;;;8.35;100.00
21658;BME280;10990;48.174;9.782;2023-10-31T06:57:30;93072.94;;;8.36;100.00
21658;BME280;10990;48.174;9.782;2023-10-31T06:59:56;93072.63;;;8.45;100.00
21658;BME280;10990;48.174;9.782;2023-10-31T07:02:21;93076.47;;;8.43;100.00
21658;BME280;10990;48.174;9.782;2023-10-31T07:04:47;93073.19;;;8.41;100.00
21658;BME280;10990;48.174;9.782;2023-10-31T07:07:13;93084.16;;;8.44;100.00
21658;BME280;10990;48.174;9.782;2023-10-31T07:09:39;93085.38;;;8.48;100.00
21658;BME280;10990;48.174;9.782;2023-10-31T07:12:08;93077.06;;;8.51;100.00
21658;BME280;10990;48.174;9.782;2023-10-31T07:14:34;93085.34;;;8.42;100.00
21658;BME280;10990;48.174;9.782;2023-10-31T07:16:59;93087.22;;;8.48;100.00
21658;BME280;10990;48.174;9.782;2023-10-31T07:19:25;93091.28;;;8.50;100.00
21658;BME280;10990;48.174;9.782;2023-10-31T07:21:51;93088.81;;;8.56;100.00
21658;BME280;10990;48.174;9.782;2023-10-31T07:24:17;93090.66;;;8.55;100.00
21658;BME280;10990;48.174;9.782;2023-10-31T07:26:42;93094.72;;;8.58;100.00
21658;BME280;10990;48.174;9.782;2023-10-31T07:29:11;93089.44;;;8.64;100.00
21658;BME280;10990;48.174;9.782;2023-10-31T07:31:37;93088.84;;;8.69;100.00
21658;BME280;10990;48.174;9.782;2023-10-31T07:34:03;93096.13;;;8.67;100.00
21658;BME280;10990;48.174;9.782;2023-10-31T07:36:28;93093.50;;;8.67;100.00
21658;BME280;10990;48.174;9.782;2023-10-31T07:38:54;93093.72;;;8.65;100.00
21658;BME280;10990;48.174;9.782;2023-10-31T07:41:20;93095.94;;;8.75;100.00
21658;BME280;10990;48.174;9.782;2023-10-31T07:43:46;93090.88;;;8.73;100.00
21658;BME280;10990;48.174;9.782;2023-10-31T07:46:14;93091.28;;;8.77;100.00
21658;BME280;10990;48.174;9.782;2023-10-31T07:48:40;93107.72;;;8.86;100.00
21658;BME280;10990;48.174;9.782;2023-10-31T07:51:06;93102.66;;;8.91;100.00
21658;BME280;10990;48.174;9.782;2023-10-31T07:53:32;93104.47;;;9.04;100.00
21658;BME280;10990;48.174;9.782;2023-10-31T07:55:57;93109.75;;;9.10;100.00
21658;BME280;10990;48.174;9.782;2023-10-31T07:58:23;93112.56;;;9.09;100.00
21658;BME280;10990;48.174;9.782;2023-10-31T08:00:49;93119.88;;;9.00;100.00
21658;BME280;10990;48.174;9.782;2023-10-31T08:03:20;93122.72;;;9.12;100.00
21658;BME280;10990;48.174;9.782;2023-10-31T08:05:46;93115.84;;;9.11;100.00
21658;BME280;10990;48.174;9.782;2023-10-31T08:08:11;93115.84;;;9.24;100.00
21658;BME280;10990;48.174;9.782;2023-10-31T08:10:37;93118.88;;;9.14;100.00
21658;BME280;10990;48.174;9.782;2023-10-31T08:13:03;93116.63;;;9.25;100.00
21658;BME280;10990;48.174;9.782;2023-10-31T08:15:29;93122.72;;;9.32;100.00
21658;BME280;10990;48.174;9.782;2023-10-31T08:17:54;93117.06;;;9.35;100.00
21658;BME280;10990;48.174;9.782;2023-10-31T08:20:23;93126.75;;;9.34;100.00
21658;BME280;10990;48.174;9.782;2023-10-31T08:22:48;93123.91;;;9.42;100.00
21658;BME280;10990;48.174;9.782;2023-10-31T08:25:14;93128.56;;;9.54;100.00
21658;BME280;10990;48.174;9.782;2023-10-31T08:27:40;93121.28;;;9.49;100.00
21658;BME280;10990;48.174;9.782;2023-10-31T08:30:08;93126.34;;;9.64;100.00
21658;BME280;10990;48.174;9.782;2023-10-31T08:32:34;93121.06;;;9.64;100.00
21658;BME280;10990;48.174;9.782;2023-10-31T08:34:59;93121.84;;;9.64;100.00
21658;BME280;10990;48.174;9.782;2023-10-31T08:37:28;93127.34;;;9.70;100.00
21658;BME280;10990;48.174;9.782;2023-10-31T08:39:54;93106.63;;;9.80;100.00
21658;BME280;10990;48.174;9.782;2023-10-31T08:42:19;93104.53;;;9.95;100.00
21658;BME280;10990;48.174;9.782;2023-10-31T08:44:45;93107.16;;;9.95;100.00
21658;BME280;10990;48.174;9.782;2023-10-31T08:47:11;93098.41;;;10.08;100.00
21658;BME280;10990;48.174;9.782;2023-10-31T08:49:37;93102.59;;;10.16;100.00
21658;BME280;10990;48.174;9.782;2023-10-31T08:52:03;93104.81;;;10.25;100.00
21658;BME280;10990;48.174;9.782;2023-10-31T08:54:31;93107.44;;;10.32;100.00
21658;BME280;10990;48.174;9.782;2023-10-31T08:56:57;93117.34;;;10.43;100.00
21658;BME280;10990;48.174;9.782;2023-10-31T08:59:23;93095.91;;;10.65;100.00
21658;BME280;10990;48.174;9.782;2023-10-31T09:01:49;93007.41;;;10.92;100.00
21658;BME280;10990;48.174;9.782;2023-10-31T09:04:14;92940.31;;;10.68;100.00
21658;BME280;10990;48.174;9.782;2023-10-31T09:06:40;92409.09;;;10.80;100.00
21658;BME280;10990;48.174;9.782;2023-10-31T09:09:06;92373.25;;;10.84;100.00
21658;BME280;10990;48.174;9.782;2023-10-31T09:11:34;92352.53;;;11.05;100.00
21658;BME280;10990;48.174;9.782;2023-10-31T09:14:00;92358.34;;;11.18;100.00
21658;BME280;10990;48.174;9.782;2023-10-31T09:16:26;92373.16;;;11.19;100.00
21658;BME280;10990;48.174;9.782;2023-10-31T09:18:52;92364.31;;;11.54;100.00
21658;BME280;10990;48.174;9.782;2023-10-31T09:21:18;92374.38;;;11.69;100.00
21658;BME280;10990;48.174;9.782;2023-10-31T09:23:43;92362.44;;;11.95;100.00
21658;BME280;10990;48.174;9.782;2023-10-31T09:26:09;92354.09;;;12.20;100.00
21658;BME280;10990;48.174;9.782;2023-10-31T09:28:38;92367.19;;;12.44;100.00
21658;BME280;10990;48.174;9.782;2023-10-31T09:31:04;92361.03;;;12.77;100.00
21658;BME280;10990;48.174;9.782;2023-10-31T09:33:30;92353.97;;;12.83;100.00
21658;BME280;10990;48.174;9.782;2023-10-31T09:35:56;92342.44;;;13.16;100.00
21658;BME280;10990;48.174;9.782;2023-10-31T09:38:22;92345.72;;;13.01;100.00
21658;BME280;10990;48.174;9.782;2023-10-31T09:40:47;92374.94;;;12.84;100.00
21658;BME280;10990;48.174;9.782;2023-10-31T09:43:13;92397.28;;;12.54;100.00
21658;BME280;10990;48.174;9.782;2023-10-31T09:45:42;92443.47;;;12.25;100.00
21658;BME280;10990;48.174;9.782;2023-10-31T09:48:07;92435.44;;;12.37;100.00
21658;BME280;10990;48.174;9.782;2023-10-31T09:50:34;92471.78;;;11.96;100.00
21658;BME280;10990;48.174;9.782;2023-10-31T09:53:01;92472.63;;;11.84;100.00
21658;BME280;10990;48.174;9.782;2023-10-31T09:55:29;92505.97;;;11.33;100.00
21658;BME280;10990;48.174;9.782;2023-10-31T09:57:55;92495.38;;;11.45;100.00
21658;BME280;10990;48.174;9.782;2023-10-31T10:00:21;92491.72;;;11.46;100.00
21658;BME280;10990;48.174;9.782;2023-10-31T10:02:49;92490.81;;;11.40;100.00
21658;BME280;10990;48.174;9.782;2023-10-31T10:05:16;92503.22;;;11.28;100.00
21658;BME280;10990;48.174;9.782;2023-10-31T10:07:43;92487.34;;;11.28;100.00
21658;BME280;10990;48.174;9.782;2023-10-31T10:10:11;92483.78;;;11.34;100.00
21658;BME280;10990;48.174;9.782;2023-10-31T10:12:37;92483.91;;;11.28;100.00
21658;BME280;10990;48.174;9.782;2023-10-31T10:15:03;92481.47;;;11.38;100.00
21658;BME280;10990;48.174;9.782;2023-10-31T10:17:29;92492.88;;;11.38;100.00
21658;BME280;10990;48.174;9.782;2023-10-31T10:20:09;92484.53;;;11.58;100.00
21658;BME280;10990;48.174;9.782;2023-10-31T10:22:38;92509.19;;;11.47;100.00
21658;BME280;10990;48.174;9.782;2023-10-31T10:25:05;92495.44;;;11.74;100.00
21658;BME280;10990;48.174;9.782;2023-10-31T10:27:31;92513.31;;;11.66;100.00
21658;BME280;10990;48.174;9.782;2023-10-31T10:29:57;92518.47;;;11.73;100.00
21658;BME280;10990;48.174;9.782;2023-10-31T10:32:23;92515.59;;;11.86;100.00
21658;BME280;10990;48.174;9.782;2023-10-31T10:34:49;92535.13;;;11.74;100.00
21658;BME280;10990;48.174;9.782;2023-10-31T10:37:18;92534.44;;;11.90;100.00
21658;BME280;10990;48.174;9.782;2023-10-31T10:39:45;92549.41;;;11.84;100.00
21658;BME280;10990;48.174;9.782;2023-10-31T10:42:17;92556.06;;;11.99;100.00
21658;BME280;10990;48.174;9.782;2023-10-31T10:44:44;92552.31;;;12.23;100.00
21658;BME280;10990;48.174;9.782;2023-10-31T10:47:12;92560.78;;;12.37;100.00
21658;BME280;10990;48.174;9.782;2023-10-31T10:49:41;92576.91;;;12.36;100.00
21658;BME280;10990;48.174;9.782;2023-10-31T10:52:17;92583.78;;;12.48;100.00
21658;BME280;10990;48.174;9.782;2023-10-31T10:54:52;92606.88;;;12.36;100.00
21658;BME280;10990;48.174;9.782;2023-10-31T10:57:24;92627.38;;;12.41;100.00
21658;BME280;10990;48.174;9.782;2023-10-31T10:59:55;92632.47;;;12.30;100.00
21658;BME280;10990;48.174;9.782;2023-10-31T11:02:25;92647.59;;;12.18;100.00
21658;BME280;10990;48.174;9.782;2023-10-31T11:04:52;92644.72;;;12.20;100.00
21658;BME280;10990;48.174;9.782;2023-10-31T11:07:21;92635.69;;;12.32;100.00
21658;BME280;10990;48.174;9.782;2023-10-31T11:09:48;92626.09;;;12.43;100.00
21658;BME280;10990;48.174;9.782;2023-10-31T11:12:14;92641.81;;;12.21;100.00
21658;BME280;10990;48.174;9.782;2023-10-31T11:14:41;92662.13;;;11.92;100.00
21658;BME280;10990;48.174;9.782;2023-10-31T11:17:14;92655.00;;;11.93;100.00
21658;BME280;10990;48.174;9.782;2023-10-31T11:19:45;92636.78;;;11.84;100.00
21658;BME280;10990;48.174;9.782;2023-10-31T11:22:11;92616.06;;;11.93;100.00
21658;BME280;10990;48.174;9.782;2023-10-31T11:24:39;92612.50;;;11.64;100.00
21658;BME280;10990;48.174;9.782;2023-10-31T11:27:06;92589.97;;;11.38;100.00
21658;BME280;10990;48.174;9.782;2023-10-31T11:29:32;92548.19;;;11.40;100.00
21658;BME280;10990;48.174;9.782;2023-10-31T11:31:59;92496.38;;;11.67;100.00
21658;BME280;10990;48.174;9.782;2023-10-31T11:34:26;92474.28;;;11.85;100.00
21658;BME280;10990;48.174;9.782;2023-10-31T11:36:52;92446.03;;;11.91;100.00
21658;BME280;10990;48.174;9.782;2023-10-31T11:39:19;92442.06;;;12.05;100.00
21658;BME280;10990;48.174;9.782;2023-10-31T11:41:54;92438.53;;;12.00;100.00
21658;BME280;10990;48.174;9.782;2023-10-31T11:44:22;92432.75;;;12.03;100.00
21658;BME280;10990;48.174;9.782;2023-10-31T11:46:51;92441.50;;;12.03;100.00
21658;BME280;10990;48.174;9.782;2023-10-31T11:49:17;92456.72;;;11.84;100.00
21658;BME280;10990;48.174;9.782;2023-10-31T11:51:45;92462.75;;;11.80;100.00
21658;BME280;10990;48.174;9.782;2023-10-31T11:54:12;92456.97;;;11.95;100.00
21658;BME280;10990;48.174;9.782;2023-10-31T11:56:38;92450.56;;;12.07;100.00
21658;BME280;10990;48.174;9.782;2023-10-31T11:59:07;92457.69;;;12.07;100.00
21658;BME280;10990;48.174;9.782;2023-10-31T12:01:33;92473.06;;;11.93;100.00
21658;BME280;10990;48.174;9.782;2023-10-31T12:03:58;92465.28;;;12.15;100.00
21658;BME280;10990;48.174;9.782;2023-10-31T12:06:24;92465.38;;;12.20;100.00
21658;BME280;10990;48.174;9.782;2023-10-31T12:08:50;92474.31;;;12.02;100.00
21658;BME280;10990;48.174;9.782;2023-10-31T12:11:17;92515.63;;;11.63;100.00
21658;BME280;10990;48.174;9.782;2023-10-31T12:13:53;92518.94;;;11.58;100.00
21658;BME280;10990;48.174;9.782;2023-10-31T12:16:23;92495.44;;;11.85;100.00
21658;BME280;10990;48.174;9.782;2023-10-31T12:18:55;92503.63;;;11.72;100.00
21658;BME280;10990;48.174;9.782;2023-10-31T12:21:34;92493.22;;;11.82;100.00
21658;BME280;10990;48.174;9.782;2023-10-31T12:24:03;92501.88;;;11.89;100.00
21658;BME280;10990;48.174;9.782;2023-10-31T12:26:28;92482.31;;;12.19;100.00
21658;BME280;10990;48.174;9.782;2023-10-31T12:29:09;92482.75;;;12.16;100.00
21658;BME280;10990;48.174;9.782;2023-10-31T12:31:39;92483.91;;;12.20;100.00
21658;BME280;10990;48.174;9.782;2023-10-31T12:34:05;92475.13;;;12.48;100.00
21658;BME280;10990;48.174;9.782;2023-10-31T12:36:31;92485.16;;;12.46;100.00
21658;BME280;10990;48.174;9.782;2023-10-31T12:38:57;92528.00;;;12.26;100.00
21658;BME280;10990;48.174;9.782;2023-10-31T12:41:23;92540.66;;;12.24;100.00
21658;BME280;10990;48.174;9.782;2023-10-31T12:43:49;92534.34;;;12.25;100.00
21658;BME280;10990;48.174;9.782;2023-10-31T12:46:24;92548.63;;;12.24;100.00
21658;BME280;10990;48.174;9.782;2023-10-31T12:48:53;92544.19;;;12.42;100.00
21658;BME280;10990;48.174;9.782;2023-10-31T12:51:19;92546.91;;;12.47;100.00
21658;BME280;10990;48.174;9.782;2023-10-31T12:53:48;92551.59;;;12.56;100.00